createdAt,value
2019-01-06T00:00:19.119Z,13.40
2019-01-06T00:03:18.438Z,11.27
2019-01-06T00:06:17.983Z,15.53
2019-01-06T00:09:07.413Z,13.57
2019-01-06T00:12:11.886Z,10.43
2019-01-06T00:15:02.231Z,13.50
2019-01-06T00:17:50.006Z,11.10
2019-01-06T00:20:51.133Z,11.67
2019-01-06T00:23:52.386Z,10.90
2019-01-06T00:26:41.570Z,12.80
2019-01-06T00:29:28.943Z,13.23
2019-01-06T00:32:19.063Z,16.43
2019-01-06T00:35:06.814Z,16.27
2019-01-06T00:37:54.834Z,14.83
2019-01-06T00:40:39.463Z,11.03
2019-01-06T00:43:28.642Z,12.47
2019-01-06T00:46:16.650Z,12.60
2019-01-06T00:49:21.174Z,10.13
2019-01-06T00:52:23.778Z,8.97
2019-01-06T00:55:12.021Z,7.47
2019-01-06T00:57:59.857Z,7.40
2019-01-06T01:01:01.311Z,10.40
2019-01-06T01:03:45.258Z,11.70
2019-01-06T01:06:43.054Z,10.80
2019-01-06T01:09:48.194Z,7.27
2019-01-06T01:12:37.374Z,11.17
2019-01-06T01:15:23.527Z,9.37
2019-01-06T01:18:18.538Z,7.93
2019-01-06T01:21:07.695Z,11.03
2019-01-06T01:23:53.819Z,9.93
2019-01-06T01:26:39.273Z,14.17
2019-01-06T01:29:43.651Z,13.63
2019-01-06T01:32:31.630Z,11.70
2019-01-06T01:35:14.890Z,11.03
2019-01-06T01:38:04.060Z,12.90
2019-01-06T01:40:56.306Z,12.37
2019-01-06T01:43:54.322Z,15.97
2019-01-06T01:46:42.530Z,13.33
2019-01-06T01:49:40.482Z,12.20
2019-01-06T01:52:28.563Z,16.13
2019-01-06T01:55:17.714Z,15.03
2019-01-06T01:58:07.187Z,12.77
2019-01-06T02:00:55.034Z,15.33
2019-01-06T02:03:43.407Z,13.13
2019-01-06T02:06:38.760Z,13.57
2019-01-06T02:09:32.070Z,13.13
2019-01-06T02:12:33.219Z,18.90
2019-01-06T02:15:29.444Z,19.43
2019-01-06T02:18:24.476Z,18.57
2019-01-06T02:21:16.489Z,20.10
2019-01-06T02:23:55.846Z,24.77
2019-01-06T02:27:09.177Z,22.40
2019-01-06T02:29:55.886Z,20.57
2019-01-06T02:32:57.172Z,24.70
2019-01-06T02:35:59.031Z,25.57
2019-01-06T02:38:54.027Z,23.17
2019-01-06T02:41:49.160Z,24.30
2019-01-06T02:44:42.223Z,24.03
2019-01-06T02:47:30.058Z,17.20
2019-01-06T02:50:43.302Z,26.93
2019-01-06T02:53:24.650Z,23.70
2019-01-06T02:56:22.954Z,19.57
2019-01-06T02:59:10.919Z,25.57
2019-01-06T03:01:58.628Z,22.87
2019-01-06T03:04:51.459Z,28.63
2019-01-06T03:07:49.943Z,27.40
2019-01-06T03:10:37.825Z,25.30
2019-01-06T03:13:25.912Z,22.23
2019-01-06T03:16:28.098Z,20.33
2019-01-06T03:19:17.275Z,22.93
2019-01-06T03:22:02.538Z,22.73
2019-01-06T03:24:54.582Z,21.43
2019-01-06T03:27:39.490Z,22.83
2019-01-06T03:30:28.842Z,23.23
2019-01-06T03:33:18.018Z,23.97
2019-01-06T03:36:18.359Z,23.37
2019-01-06T03:39:06.091Z,22.53
2019-01-06T03:42:13.539Z,22.07
2019-01-06T03:45:05.622Z,22.77
2019-01-06T03:48:04.171Z,25.97
2019-01-06T03:50:56.078Z,29.60
2019-01-06T03:53:44.766Z,26.30
2019-01-06T03:56:32.628Z,24.43
2019-01-06T03:59:25.087Z,20.60
2019-01-06T04:02:21.163Z,26.67
2019-01-06T04:05:09.241Z,25.23
2019-01-06T04:08:01.036Z,25.30
2019-01-06T04:10:49.559Z,21.10
2019-01-06T04:13:38.736Z,26.57
2019-01-06T04:16:35.934Z,27.17
2019-01-06T04:19:28.330Z,27.17
2019-01-06T04:22:17.067Z,23.53
2019-01-06T04:25:05.150Z,24.80
2019-01-06T04:28:03.625Z,24.23
2019-01-06T04:31:02.189Z,26.37
2019-01-06T04:33:51.700Z,22.07
2019-01-06T04:36:39.522Z,25.77
2019-01-06T04:39:27.724Z,24.23
2019-01-06T04:42:15.417Z,27.17
2019-01-06T04:45:16.738Z,28.73
2019-01-06T04:48:11.991Z,22.83
2019-01-06T04:51:01.182Z,22.57
2019-01-06T04:53:49.092Z,26.83
2019-01-06T04:56:47.698Z,22.97
2019-01-06T04:59:35.422Z,21.77
2019-01-06T05:02:24.627Z,22.90
2019-01-06T05:05:15.370Z,22.07
2019-01-06T05:08:07.418Z,20.57
2019-01-06T05:11:11.727Z,24.57
2019-01-06T05:13:52.446Z,26.23
2019-01-06T05:16:44.685Z,22.67
2019-01-06T05:19:32.801Z,21.53
2019-01-06T05:22:13.755Z,25.10
2019-01-06T05:25:01.887Z,20.87
2019-01-06T05:27:51.584Z,20.83
2019-01-06T05:30:54.103Z,21.30
2019-01-06T05:33:55.559Z,20.87
2019-01-06T05:36:37.861Z,22.23
2019-01-06T05:39:22.175Z,19.23
2019-01-06T05:42:10.142Z,18.10
2019-01-06T05:45:02.316Z,19.90
2019-01-06T05:47:50.285Z,22.40
2019-01-06T05:50:38.337Z,19.10
2019-01-06T05:53:22.926Z,19.53
2019-01-06T05:56:18.292Z,16.47
2019-01-06T05:59:18.770Z,17.90
2019-01-06T06:02:13.834Z,19.83
2019-01-06T06:05:18.094Z,19.10
2019-01-06T06:08:09.070Z,14.47
2019-01-06T06:10:59.910Z,16.93
2019-01-06T06:13:47.746Z,17.07
2019-01-06T06:16:36.994Z,19.07
2019-01-06T06:19:25.258Z,16.53
2019-01-06T06:22:14.124Z,16.67
2019-01-06T06:25:08.988Z,20.40
2019-01-06T06:27:51.674Z,14.67
2019-01-06T06:30:49.975Z,13.37
2019-01-06T06:33:35.698Z,17.27
2019-01-06T06:36:23.596Z,22.33
2019-01-06T06:42:24.251Z,16.13
2019-01-06T06:45:13.147Z,17.97
2019-01-06T06:48:10.821Z,14.03
2019-01-06T06:51:25.159Z,17.27
2019-01-06T06:54:17.602Z,17.10
2019-01-06T06:57:14.478Z,14.87
2019-01-06T07:00:40.642Z,14.07
2019-01-06T07:03:41.738Z,19.27
2019-01-06T07:06:29.406Z,17.20
2019-01-06T07:09:21.642Z,16.80
2019-01-06T07:12:10.791Z,18.73
2019-01-06T07:14:59.988Z,15.70
2019-01-06T07:18:04.638Z,17.20
2019-01-06T07:20:53.280Z,14.30
2019-01-06T07:23:57.447Z,19.60
2019-01-06T07:27:05.063Z,13.27
2019-01-06T07:29:49.278Z,14.50
2019-01-06T07:32:37.340Z,14.67
2019-01-06T07:35:25.107Z,16.20
2019-01-06T07:38:20.099Z,12.43
2019-01-06T07:41:07.806Z,13.83
2019-01-06T07:43:55.820Z,12.67
2019-01-06T07:46:51.138Z,12.07
2019-01-06T07:49:39.103Z,11.37
2019-01-06T07:52:43.665Z,10.27
2019-01-06T07:55:31.918Z,11.37
2019-01-06T07:58:19.887Z,9.33
2019-01-06T08:01:05.234Z,12.87
2019-01-06T08:03:53.204Z,11.03
2019-01-06T08:06:51.810Z,10.10
2019-01-06T08:09:59.426Z,10.00
2019-01-06T08:13:13.579Z,6.97
2019-01-06T08:16:01.598Z,10.53
2019-01-06T08:19:06.166Z,10.50
2019-01-06T08:22:07.482Z,8.83
2019-01-06T08:25:03.046Z,10.03
2019-01-06T08:27:51.507Z,10.23
2019-01-06T08:30:40.690Z,13.63
2019-01-06T08:33:28.243Z,8.87
2019-01-06T08:36:16.395Z,8.57
2019-01-06T08:39:04.223Z,8.17
2019-01-06T08:41:57.163Z,10.13
2019-01-06T08:44:45.142Z,7.03
2019-01-06T08:47:40.034Z,7.40
2019-01-06T08:50:19.770Z,8.73
2019-01-06T08:53:09.379Z,8.90
2019-01-06T08:55:57.606Z,10.50
2019-01-06T08:58:50.479Z,7.50
2019-01-06T09:01:38.657Z,6.37
2019-01-06T09:04:32.482Z,7.50
2019-01-06T09:07:37.348Z,10.23
2019-01-06T09:10:29.627Z,8.57
2019-01-06T09:13:28.049Z,10.33
2019-01-06T09:16:20.404Z,8.87
2019-01-06T09:19:09.530Z,9.93
2019-01-06T09:21:57.875Z,5.47
2019-01-06T09:24:56.328Z,10.83
2019-01-06T09:27:40.051Z,6.17
2019-01-06T09:30:44.122Z,6.73
2019-01-06T09:33:32.211Z,6.97
2019-01-06T09:36:19.966Z,8.33
2019-01-06T09:39:06.309Z,7.97
2019-01-06T09:42:00.387Z,10.03
2019-01-06T09:44:48.174Z,7.47
2019-01-06T09:47:36.014Z,8.03
2019-01-06T09:50:37.258Z,5.23
2019-01-06T09:53:44.827Z,6.40
2019-01-06T09:56:48.933Z,8.17
2019-01-06T09:59:47.079Z,8.37
2019-01-06T10:02:37.055Z,9.47
2019-01-06T10:05:25.143Z,8.20
2019-01-06T10:08:17.159Z,6.50
2019-01-06T10:11:05.011Z,11.87
2019-01-06T10:13:51.311Z,4.33
2019-01-06T10:16:39.338Z,7.47
2019-01-06T10:19:31.792Z,6.10
2019-01-06T10:22:24.794Z,6.47
2019-01-06T10:25:12.678Z,5.20
2019-01-06T10:28:13.947Z,5.53
2019-01-06T10:31:03.258Z,5.10
2019-01-06T10:33:56.974Z,8.03
2019-01-06T10:36:55.141Z,3.57
2019-01-06T10:39:56.355Z,6.43
2019-01-06T10:42:44.375Z,4.20
2019-01-06T10:45:25.626Z,3.03
2019-01-06T10:48:15.143Z,3.33
2019-01-06T10:51:03.100Z,6.27
2019-01-06T10:53:52.552Z,4.83
2019-01-06T10:56:53.766Z,6.57
2019-01-06T10:59:41.626Z,2.90
2019-01-06T11:02:29.966Z,7.63
2019-01-06T11:05:28.770Z,3.60
2019-01-06T11:08:18.017Z,3.03
2019-01-06T11:11:06.626Z,3.13
2019-01-06T11:13:58.586Z,3.97
2019-01-06T11:16:47.847Z,3.77
2019-01-06T11:19:45.990Z,3.70
2019-01-06T11:22:44.306Z,2.83
2019-01-06T11:25:51.997Z,3.37
2019-01-06T11:28:42.057Z,5.07
2019-01-06T11:31:29.939Z,3.17
2019-01-06T11:34:17.878Z,4.47
2019-01-06T11:37:05.718Z,2.77
2019-01-06T11:39:53.909Z,4.63
2019-01-06T11:42:41.673Z,4.90
2019-01-06T11:45:44.292Z,3.00
2019-01-06T11:48:33.443Z,4.03
2019-01-06T11:51:18.682Z,4.37
2019-01-06T11:54:10.866Z,7.20
2019-01-06T11:57:12.226Z,6.57
2019-01-06T12:00:01.367Z,8.07
2019-01-06T12:02:50.634Z,5.90
2019-01-06T12:05:52.868Z,9.17
2019-01-06T12:08:46.554Z,12.57
2019-01-06T12:11:44.879Z,6.10
2019-01-06T12:14:36.974Z,9.90
2019-01-06T12:17:26.121Z,7.20
2019-01-06T12:20:38.495Z,5.67
2019-01-06T12:23:33.828Z,5.90
2019-01-06T12:26:35.191Z,6.90
2019-01-06T12:29:32.038Z,8.47
2019-01-06T12:32:15.842Z,5.67
2019-01-06T12:35:10.102Z,7.53
2019-01-06T12:38:04.147Z,7.73
2019-01-06T12:41:08.446Z,8.63
2019-01-06T12:44:06.983Z,5.87
2019-01-06T12:46:55.011Z,5.30
2019-01-06T12:49:44.306Z,6.83
2019-01-06T12:52:39.248Z,5.07
2019-01-06T12:55:19.915Z,5.90
2019-01-06T12:58:08.081Z,8.07
2019-01-06T13:00:56.435Z,7.37
2019-01-06T13:03:49.987Z,9.53
2019-01-06T13:06:37.886Z,7.13
2019-01-06T13:09:26.058Z,7.30
2019-01-06T13:12:21.575Z,7.57
2019-01-06T13:15:09.349Z,7.57
2019-01-06T13:18:01.667Z,6.10
2019-01-06T13:20:49.694Z,6.10
2019-01-06T13:24:09.042Z,4.87
2019-01-06T13:27:13.495Z,6.50
2019-01-06T13:30:18.763Z,5.07
2019-01-06T13:33:06.547Z,8.30
2019-01-06T13:35:53.202Z,7.83
2019-01-06T13:38:40.906Z,7.73
2019-01-06T13:41:37.054Z,5.47
2019-01-06T13:44:34.798Z,4.10
2019-01-06T13:47:24.314Z,5.70
2019-01-06T13:50:12.517Z,9.20
2019-01-06T13:53:14.116Z,9.60
2019-01-06T13:56:02.318Z,8.43
2019-01-06T13:58:51.391Z,8.20
2019-01-06T14:01:40.005Z,8.13
2019-01-06T14:04:47.578Z,6.03
2019-01-06T14:07:42.745Z,8.53
2019-01-06T14:10:24.372Z,6.37
2019-01-06T14:13:03.571Z,5.63
2019-01-06T14:15:55.910Z,9.20
2019-01-06T14:18:44.324Z,5.27
2019-01-06T14:21:33.514Z,7.23
2019-01-06T14:24:19.215Z,5.80
2019-01-06T14:27:19.827Z,6.80
2019-01-06T14:30:15.839Z,4.50
2019-01-06T14:33:05.118Z,6.97
2019-01-06T14:35:48.382Z,5.30
2019-01-06T14:38:40.760Z,5.43
2019-01-06T14:41:22.619Z,7.50
2019-01-06T14:44:14.835Z,8.23
2019-01-06T14:47:02.629Z,4.80
2019-01-06T14:50:10.262Z,7.43
2019-01-06T14:53:11.662Z,7.87
2019-01-06T14:55:50.591Z,9.77
2019-01-06T14:58:38.390Z,9.00
2019-01-06T15:01:39.724Z,8.87
2019-01-06T15:04:28.886Z,31.87
2019-01-06T15:07:21.281Z,14.10
2019-01-06T15:10:10.803Z,14.67
2019-01-06T15:13:04.740Z,12.33
2019-01-06T15:15:52.699Z,12.73
2019-01-06T15:18:40.854Z,10.80
2019-01-06T15:21:34.479Z,9.60
2019-01-06T15:24:22.870Z,9.97
2019-01-06T15:27:10.658Z,8.80
2019-01-06T15:30:00.270Z,8.50
2019-01-06T15:32:48.558Z,8.77
2019-01-06T15:35:33.607Z,9.47
2019-01-06T15:38:35.043Z,13.87
2019-01-06T15:41:24.239Z,9.13
2019-01-06T15:44:11.924Z,8.43
2019-01-06T15:46:55.278Z,9.03
2019-01-06T15:49:34.579Z,10.93
2019-01-06T15:52:23.766Z,10.90
2019-01-06T15:55:21.099Z,10.60
2019-01-06T15:58:19.423Z,11.53
2019-01-06T16:01:08.582Z,10.40
2019-01-06T16:04:04.315Z,10.70
2019-01-06T16:06:52.867Z,9.63
2019-01-06T16:09:47.830Z,8.23
2019-01-06T16:12:27.166Z,8.13
2019-01-06T16:15:22.563Z,10.67
2019-01-06T16:18:10.602Z,10.43
2019-01-06T16:21:02.997Z,11.73
2019-01-06T16:24:01.059Z,9.43
2019-01-06T16:27:05.398Z,10.03
2019-01-06T16:30:06.685Z,8.47
2019-01-06T16:33:15.316Z,10.20
2019-01-06T16:36:13.686Z,10.73
2019-01-06T16:39:00.865Z,9.13
2019-01-06T16:41:48.783Z,10.77
2019-01-06T16:44:47.278Z,12.03
2019-01-06T16:47:42.267Z,9.30
2019-01-06T16:50:37.236Z,11.03
2019-01-06T16:53:29.422Z,12.03
2019-01-06T16:56:30.666Z,11.40
2019-01-06T16:59:18.970Z,10.57
2019-01-06T17:02:11.118Z,10.43
2019-01-06T17:05:09.347Z,11.80
2019-01-06T17:07:58.510Z,12.03
2019-01-06T17:10:53.482Z,10.50
2019-01-06T17:13:41.353Z,13.57
2019-01-06T17:16:29.486Z,13.37
2019-01-06T17:19:17.731Z,10.87
2019-01-06T17:22:13.094Z,10.63
2019-01-06T17:25:01.009Z,11.87
2019-01-06T17:28:02.193Z,13.13
2019-01-06T17:31:02.927Z,15.17
2019-01-06T17:33:46.565Z,13.53
2019-01-06T17:36:34.404Z,12.83
2019-01-06T17:39:37.578Z,15.27
2019-01-06T17:42:33.686Z,15.40
2019-01-06T17:45:21.854Z,11.70
2019-01-06T17:48:20.127Z,15.03
2019-01-06T17:51:09.554Z,13.40
2019-01-06T17:53:52.510Z,14.13
2019-01-06T17:56:52.815Z,13.93
2019-01-06T17:59:44.566Z,13.53
2019-01-06T18:02:36.820Z,13.87
2019-01-06T18:05:25.003Z,14.63
2019-01-06T18:08:32.399Z,12.73
2019-01-06T18:11:16.990Z,13.00
2019-01-06T18:14:05.374Z,13.53
2019-01-06T18:16:53.546Z,13.10
2019-01-06T18:19:54.610Z,17.00
2019-01-06T18:22:37.763Z,13.53
2019-01-06T18:25:29.050Z,12.83
2019-01-06T18:28:14.046Z,14.27
2019-01-06T18:31:02.062Z,16.43
2019-01-06T18:33:50.514Z,16.23
2019-01-06T18:36:48.378Z,17.07
2019-01-06T18:39:36.586Z,17.27
2019-01-06T18:42:21.598Z,16.03
2019-01-06T18:45:16.718Z,16.33
2019-01-06T18:48:03.422Z,13.67
2019-01-06T18:50:51.738Z,13.43
2019-01-06T18:53:49.708Z,16.33
2019-01-06T18:56:38.902Z,14.37
2019-01-06T18:59:40.670Z,17.77
2019-01-06T19:02:35.651Z,16.17
2019-01-06T19:05:38.338Z,17.07
2019-01-06T19:08:39.435Z,14.13
2019-01-06T19:11:28.578Z,18.40
2019-01-06T19:14:16.426Z,15.33
2019-01-06T19:17:20.703Z,14.07
2019-01-06T19:20:09.897Z,17.00
2019-01-06T19:23:05.386Z,14.93
2019-01-06T19:25:53.615Z,18.30
2019-01-06T19:28:43.788Z,18.80
2019-01-06T19:31:32.935Z,15.33
2019-01-06T19:34:25.206Z,16.93
2019-01-06T19:37:09.326Z,17.07
2019-01-06T19:40:10.715Z,14.73
2019-01-06T19:42:59.874Z,16.57
2019-01-06T19:46:01.175Z,18.17
2019-01-06T19:48:44.219Z,17.23
2019-01-06T19:51:30.518Z,16.77
2019-01-06T19:54:18.709Z,16.53
2019-01-06T19:57:07.867Z,16.40
2019-01-06T20:00:06.418Z,17.13
2019-01-06T20:03:04.395Z,16.20
2019-01-06T20:06:12.037Z,19.43
2019-01-06T20:09:13.499Z,19.27
2019-01-06T20:12:05.450Z,17.67
2019-01-06T20:14:53.307Z,17.37
2019-01-06T20:17:38.107Z,18.00
2019-01-06T20:20:27.522Z,20.40
2019-01-06T20:23:19.517Z,19.37
2019-01-06T20:26:08.690Z,17.87
2019-01-06T20:28:56.849Z,19.87
2019-01-06T20:31:44.754Z,19.67
2019-01-06T20:34:50.482Z,20.60
2019-01-06T20:37:51.622Z,22.73
2019-01-06T20:40:51.447Z,23.77
2019-01-06T20:43:46.986Z,25.00
2019-01-06T20:46:34.942Z,21.17
2019-01-06T20:49:20.371Z,19.33
2019-01-06T20:52:12.383Z,26.07
2019-01-06T20:55:16.831Z,23.77
2019-01-06T20:58:12.676Z,26.20
2019-01-06T21:01:00.493Z,21.47
2019-01-06T21:03:48.555Z,20.57
2019-01-06T21:06:40.462Z,25.87
2019-01-06T21:09:32.567Z,23.10
2019-01-06T21:12:14.290Z,22.40
2019-01-06T21:15:02.334Z,19.80
2019-01-06T21:17:50.568Z,23.60
2019-01-06T21:20:32.313Z,23.70
2019-01-06T21:23:20.112Z,22.53
2019-01-06T21:26:21.371Z,21.70
2019-01-06T21:29:19.470Z,25.70
2019-01-06T21:32:13.130Z,19.33
2019-01-06T21:35:17.715Z,23.17
2019-01-06T21:38:23.518Z,20.93
2019-01-06T21:41:11.373Z,22.97
2019-01-06T21:44:01.544Z,21.07
2019-01-06T21:46:59.575Z,20.57
2019-01-06T21:49:59.974Z,21.53
2019-01-06T21:52:43.285Z,21.80
2019-01-06T21:55:31.170Z,20.70
2019-01-06T21:58:19.138Z,23.77
2019-01-06T22:01:20.472Z,19.10
2019-01-06T22:04:09.438Z,18.67
2019-01-06T22:07:10.931Z,20.83
2019-01-06T22:10:10.614Z,21.43
2019-01-06T22:13:06.438Z,19.00
2019-01-06T22:15:54.244Z,18.83
2019-01-06T22:18:43.407Z,18.30
2019-01-06T22:21:35.326Z,18.97
2019-01-06T22:24:24.497Z,21.60
2019-01-06T22:27:22.504Z,18.80
2019-01-06T22:30:17.693Z,20.20
2019-01-06T22:33:21.885Z,20.30
2019-01-06T22:36:06.361Z,21.97
2019-01-06T22:39:04.382Z,19.07
2019-01-06T22:41:53.641Z,20.07
2019-01-06T22:44:41.709Z,18.93
2019-01-06T22:47:29.795Z,19.50
2019-01-06T22:50:27.866Z,22.33
2019-01-06T22:53:15.741Z,23.90
2019-01-06T22:56:10.946Z,24.03
2019-01-06T22:59:05.997Z,20.57
2019-01-06T23:01:54.070Z,19.70
2019-01-06T23:04:50.465Z,22.17
2019-01-06T23:07:57.854Z,25.73
2019-01-06T23:10:45.971Z,25.07
2019-01-06T23:13:47.179Z,22.57
2019-01-06T23:16:42.238Z,24.50
2019-01-06T23:19:36.306Z,23.93
2019-01-06T23:22:37.174Z,25.07
2019-01-06T23:25:25.210Z,22.70
2019-01-06T23:28:18.782Z,23.63
2019-01-06T23:31:10.738Z,22.43
2019-01-06T23:34:05.959Z,21.07
2019-01-06T23:36:53.746Z,23.70
2019-01-06T23:39:41.810Z,25.63
2019-01-06T23:42:29.552Z,24.43
2019-01-06T23:45:18.726Z,23.00
2019-01-06T23:48:11.203Z,21.80
2019-01-06T23:50:50.262Z,23.07
2019-01-06T23:53:49.354Z,23.57
2019-01-06T23:56:37.484Z,30.70
2019-01-06T23:59:35.795Z,26.90
